Main page
METAR-TAF:

METAR-TAF

Airports :

Luxembourg Findel Airport

Luxembourg, Luxembourg

latitude: 49-37N, longitude: 006-13E, elevation: 376 m

Current weather observation

The report was made 25 minutes ago, at 06:20 UTC
Wind 3 kt from the East, varying between North/Northeast and South/Southwest
Temperature 15°C
Humidity 82%
Pressure 1023 hPa
Visibility 10 km or more
no clouds below 1500 m and no cumulonimbus

METAR: ELLX 180620Z 08003KT 030V200 CAVOK 15/12 Q1023 NOSIG

Time: 08:45 (06:45 UTC)

Forecast

The report was made 1 hour and 45 minutes ago, at 05:00 UTC
Forecast valid from 18 at 06 UTC to 19 at 12 UTC
Wind 5 kt from the North/Northeast
Visibility 10 km or more
no clouds below 1500 m and no cumulonimbus
Becoming
from 18 at 12 UTC to 18 at 15 UTC
Wind 5 kt from the West
Temporary
from 18 at 20 UTC to 19 at 09 UTC
Wind 2 kt from variable directions

TAF: ELLX 180500Z 1806/1912 02005KT CAVOK BECMG 1812/1815 27005KT TEMPO 1820/1909 VRB02KT

Weather observations and forecasts of more than 4000 airports (METAR and TAF reports).

The available stations are represented by yellow and red dots on the map.

Hover mouse over dot to see the name of the station.

Then click to see weather observations and forecasts.

To change the map : click on the green buttons with a black cross to zoom in, on the green button with a dash to zoom out, or on the green arrows for adjacent maps.


METAR-TAF: